Time;durP1;ratioP1;P1;durP2;ratioP2;P2;SDS_P1;SDS_P2;PMS_P1;PMS_P2;Temp;Humidity;BMP_temperature;BMP_pressure;BME280_temperature;BME280_humidity;BME280_pressure;Samples;Min_cycle;Max_cycle;Signal;HPM_P1;HPM_P2
2022/10/04 00:00:25;;;;;;;;;;;16.60;99.90;17.00;100088.00;;;;347397;28;83531;-91
2022/10/04 00:00:37;;;;;;;;;;;16.60;99.90;16.90;100097.00;;;;345888;28;87436;-91
2022/10/04 00:00:49;;;;;;;;;;;16.60;99.90;16.90;100092.00;;;;346242;28;82760;-91
2022/10/04 00:01:07;;;;;;;;;;;16.60;99.90;16.90;100092.00;;;;347430;28;86129;-91
2022/10/04 00:01:19;;;;;;;;;;;16.60;99.90;17.00;100094.00;;;;347253;28;83601;-91
2022/10/04 00:01:40;;;;;;;;;;;16.60;99.90;17.00;100096.00;;;;344451;28;86649;-91
2022/10/04 00:01:57;;;;;;;;;;;16.60;99.90;16.80;100094.00;;;;345985;28;83528;-91
2022/10/04 00:02:12;;;;;;;;;;;16.60;99.90;16.80;100095.00;;;;347480;28;87234;-90
2022/10/04 00:02:28;;;;;;;;;;;16.60;99.90;16.80;100086.00;;;;346122;28;82606;-91
2022/10/04 00:02:39;;;;;;;;;;;16.60;99.90;16.80;100084.00;;;;344700;28;86289;-91
2022/10/04 00:02:53;;;;;;;;;;;16.60;99.90;16.70;100094.00;;;;345733;28;82599;-91
2022/10/04 00:03:16;;;;;;;;;;;16.60;99.90;16.70;100089.00;;;;344726;28;86238;-91
2022/10/04 00:03:34;;;;;;;;;;;16.60;99.90;16.70;100088.00;;;;347439;28;82487;-90
2022/10/04 00:03:48;;;;;;;;;;;16.60;99.90;16.60;100078.00;;;;347731;28;82135;-91
2022/10/04 00:04:08;;;;;;;;;;;16.60;99.90;16.60;100090.00;;;;346005;28;82572;-91
2022/10/04 00:04:33;;;;;;;;;;;16.60;99.90;16.70;100090.00;;;;347334;28;86693;-91
2022/10/04 00:04:58;;;;;;;;;;;16.50;99.90;16.80;100085.00;;;;346096;28;82575;-91
2022/10/04 00:05:12;;;;;;;;;;;16.50;99.90;16.90;100089.00;;;;348504;27;85694;-91
2022/10/04 00:05:24;;;;;;;;;;;16.50;99.90;16.90;100092.00;;;;346750;28;82672;-91
2022/10/04 00:05:36;;;;;;;;;;;16.50;99.90;16.90;100088.00;;;;345600;28;88281;-91
2022/10/04 00:05:53;;;;;;;;;;;16.50;99.90;16.90;100093.00;;;;347166;28;83443;-91
2022/10/04 00:06:05;;;;;;;;;;;16.60;99.90;16.90;100086.00;;;;345802;28;86339;-91
2022/10/04 00:06:23;;;;;;;;;;;16.60;99.90;16.90;100089.00;;;;346989;28;82553;-91
2022/10/04 00:06:34;;;;;;;;;;;16.60;99.90;16.90;100093.00;;;;347168;28;87437;-91
2022/10/04 00:07:12;;;;;;;;;;;16.60;99.90;16.60;100084.00;;;;344466;28;82494;-91
2022/10/04 00:07:26;;;;;;;;;;;16.60;99.90;16.50;100085.00;;;;344151;28;88197;-91
2022/10/04 00:07:44;;;;;;;;;;;16.50;99.90;16.50;100086.00;;;;345649;28;82567;-91
2022/10/04 00:07:57;;;;;;;;;;;16.50;99.90;16.50;100091.00;;;;345747;28;87242;-91
2022/10/04 00:08:26;;;;;;;;;;;16.50;99.90;16.60;100080.00;;;;345828;28;82469;-91
2022/10/04 00:08:49;;;;;;;;;;;16.50;99.90;16.50;100090.00;;;;346943;28;86428;-91
2022/10/04 00:09:11;;;;;;;;;;;16.40;99.90;16.60;100085.00;;;;345874;28;82565;-90
2022/10/04 00:09:24;;;;;;;;;;;16.40;99.90;16.60;100080.00;;;;345742;28;86365;-91
2022/10/04 00:09:56;;;;;;;;;;;16.40;99.90;16.60;100079.00;;;;345926;28;82519;-91
2022/10/04 00:10:25;;;;;;;;;;;16.40;99.90;16.70;100082.00;;;;344463;28;86365;-91
2022/10/04 00:10:36;;;;;;;;;;;16.40;99.90;16.70;100084.00;;;;345809;28;83442;-91
2022/10/04 00:10:48;;;;;;;;;;;16.40;99.90;16.70;100082.00;;;;344443;28;86038;-91
2022/10/04 00:11:11;;;;;;;;;;;16.40;99.90;16.70;100079.00;;;;347251;28;83893;-91
2022/10/04 00:11:25;;;;;;;;;;;16.40;99.90;16.70;100084.00;;;;345664;28;86498;-91
2022/10/04 00:11:37;;;;;;;;;;;16.40;99.90;16.60;100085.00;;;;344469;28;82511;-91
2022/10/04 00:11:50;;;;;;;;;;;16.40;99.90;16.50;100094.00;;;;349888;27;86418;-91
2022/10/04 00:12:01;;;;;;;;;;;16.50;99.90;16.60;100087.00;;;;347129;28;82582;-91
2022/10/04 00:12:24;;;;;;;;;;;16.40;99.90;16.50;100079.00;;;;348399;27;86773;-91
2022/10/04 00:12:38;;;;;;;;;;;16.40;99.90;16.50;100088.00;;;;347192;28;83407;-90
2022/10/04 00:12:57;;;;;;;;;;;16.40;99.90;16.60;100087.00;;;;347027;28;84975;-91
2022/10/04 00:13:17;;;;;;;;;;;16.40;99.90;16.50;100086.00;;;;347165;28;83471;-90
2022/10/04 00:13:29;;;;;;;;;;;16.40;99.90;16.50;100086.00;;;;344440;28;86094;-91
2022/10/04 00:13:41;;;;;;;;;;;16.30;99.90;16.50;100085.00;;;;345838;28;83384;-91
2022/10/04 00:14:00;;;;;;;;;;;16.30;99.90;16.50;100085.00;;;;342940;28;86531;-91
2022/10/04 00:14:29;;;;;;;;;;;16.30;99.90;16.50;100088.00;;;;345686;28;82572;-91
2022/10/04 00:14:41;;;;;;;;;;;16.40;99.90;16.40;100083.00;;;;348540;27;86410;-91
2022/10/04 00:14:55;;;;;;;;;;;16.30;99.90;16.50;100084.00;;;;345833;28;83370;-91
2022/10/04 00:15:28;;;;;;;;;;;16.30;99.90;16.50;100089.00;;;;348410;27;87222;-91
2022/10/04 00:15:40;;;;;;;;;;;16.30;99.90;16.50;100083.00;;;;347130;28;83579;-91
2022/10/04 00:15:51;;;;;;;;;;;16.30;99.90;16.50;100078.00;;;;345582;28;86384;-91
2022/10/04 00:16:03;;;;;;;;;;;16.30;99.90;16.50;100081.00;;;;345868;28;83454;-91
2022/10/04 00:16:44;;;;;;;;;;;16.30;99.90;16.50;100089.00;;;;347214;28;86962;-91
2022/10/04 00:16:56;;;;;;;;;;;16.30;99.90;16.50;100086.00;;;;344452;28;83537;-91
2022/10/04 00:17:09;;;;;;;;;;;16.30;99.90;16.50;100082.00;;;;343795;28;86465;-91
2022/10/04 00:17:30;;;;;;;;;;;16.30;99.90;16.50;100076.00;;;;343538;28;82670;-91
2022/10/04 00:17:42;;;;;;;;;;;16.30;99.90;16.50;100082.00;;;;345584;28;86755;-91
2022/10/04 00:18:20;;;;;;;;;;;16.30;99.90;16.60;100081.00;;;;345652;28;83518;-91
2022/10/04 00:18:39;;;;;;;;;;;16.20;99.90;16.60;100077.00;;;;345824;28;86263;-91
2022/10/04 00:19:01;;;;;;;;;;;16.30;99.90;16.40;100081.00;;;;344369;28;82539;-91
2022/10/04 00:19:13;;;;;;;;;;;16.30;99.90;16.50;100085.00;;;;347038;28;86880;-91
2022/10/04 00:19:37;;;;;;;;;;;16.30;99.90;16.50;100080.00;;;;345813;28;82527;-91
2022/10/04 00:19:49;;;;;;;;;;;16.30;99.90;16.40;100076.00;;;;345644;28;87116;-91
2022/10/04 00:20:03;;;;;;;;;;;16.30;99.90;16.40;100076.00;;;;347190;28;83539;-91
2022/10/04 00:20:49;;;;;;;;;;;16.20;99.90;16.50;100084.00;;;;348640;27;86436;-90
2022/10/04 00:21:01;;;;;;;;;;;16.30;99.90;16.50;100082.00;;;;347013;28;83220;-91
2022/10/04 00:21:13;;;;;;;;;;;16.30;99.90;16.50;100076.00;;;;344201;28;87625;-91
2022/10/04 00:21:25;;;;;;;;;;;16.20;99.90;16.40;100074.00;;;;345920;28;82507;-90
2022/10/04 00:21:55;;;;;;;;;;;16.20;99.90;16.40;100087.00;;;;345740;28;86389;-90
2022/10/04 00:22:09;;;;;;;;;;;16.20;99.90;16.40;100081.00;;;;344429;28;83619;-91
2022/10/04 00:22:32;;;;;;;;;;;16.20;99.90;16.40;100083.00;;;;344401;28;86822;-91
2022/10/04 00:23:22;;;;;;;;;;;16.20;99.90;16.30;100087.00;;;;345920;28;82500;-90
2022/10/04 00:23:36;;;;;;;;;;;16.20;99.90;16.50;100085.00;;;;347109;28;85384;-91
2022/10/04 00:23:48;;;;;;;;;;;16.20;99.90;16.50;100082.00;;;;345747;28;82596;-90
2022/10/04 00:24:09;;;;;;;;;;;16.20;99.90;16.50;100088.00;;;;345912;28;87207;-91
2022/10/04 00:24:33;;;;;;;;;;;16.20;99.90;16.50;100082.00;;;;347151;28;82593;-91
2022/10/04 00:25:06;;;;;;;;;;;16.20;99.90;16.40;100078.00;;;;345808;28;85819;-91
2022/10/04 00:25:19;;;;;;;;;;;16.20;99.90;16.40;100079.00;;;;345845;28;82514;-92
2022/10/04 00:25:33;;;;;;;;;;;16.20;99.90;16.30;100080.00;;;;344389;28;87244;-91
2022/10/04 00:25:45;;;;;;;;;;;16.20;99.90;16.30;100085.00;;;;345902;28;82566;-91
2022/10/04 00:25:58;;;;;;;;;;;16.20;99.90;16.20;100085.00;;;;348524;27;87933;-91
2022/10/04 00:26:22;;;;;;;;;;;16.20;99.90;16.30;100077.00;;;;347078;28;83534;-91
2022/10/04 00:26:37;;;;;;;;;;;16.10;99.90;16.30;100088.00;;;;347029;28;86393;-91
2022/10/04 00:26:49;;;;;;;;;;;16.10;99.90;16.30;100085.00;;;;345903;28;82620;-90
2022/10/04 00:27:15;;;;;;;;;;;16.10;99.90;16.40;100089.00;;;;345671;28;86747;-91
2022/10/04 00:27:27;;;;;;;;;;;16.10;99.90;16.40;100089.00;;;;345840;28;83496;-90
2022/10/04 00:27:40;;;;;;;;;;;16.10;99.90;16.40;100079.00;;;;347039;28;85575;-91
2022/10/04 00:28:19;;;;;;;;;;;16.10;99.90;16.40;100091.00;;;;345717;28;82535;-90
2022/10/04 00:28:34;;;;;;;;;;;16.10;99.90;16.40;100091.00;;;;345636;28;86158;-90
2022/10/04 00:28:46;;;;;;;;;;;16.20;99.90;16.30;100081.00;;;;345838;28;83453;-91
2022/10/04 00:28:58;;;;;;;;;;;16.20;99.90;16.20;100085.00;;;;347284;28;83996;-91
2022/10/04 00:29:25;;;;;;;;;;;16.10;99.90;16.20;100095.00;;;;347727;27;83501;-91
2022/10/04 00:29:38;;;;;;;;;;;16.10;99.90;16.30;100085.00;;;;347125;28;87274;-91
2022/10/04 00:30:02;;;;;;;;;;;16.10;99.90;16.40;100091.00;;;;344390;28;82513;-91
2022/10/04 00:30:22;;;;;;;;;;;16.10;99.90;16.40;100085.00;;;;345625;28;86733;-91
2022/10/04 00:30:35;;;;;;;;;;;16.10;99.90;16.40;100084.00;;;;345809;28;83238;-90
2022/10/04 00:31:18;;;;;;;;;;;16.10;99.90;16.40;100085.00;;;;347037;28;86692;-90
2022/10/04 00:31:30;;;;;;;;;;;16.10;99.90;16.40;100084.00;;;;346045;28;83482;-91
2022/10/04 00:32:23;;;;;;;;;;;16.10;99.90;16.40;100092.00;;;;344336;28;87308;-90
2022/10/04 00:32:38;;;;;;;;;;;16.10;99.90;16.20;100090.00;;;;343180;28;83670;-91
2022/10/04 00:33:00;;;;;;;;;;;16.10;99.90;16.30;100087.00;;;;345074;28;85125;-91
2022/10/04 00:33:12;;;;;;;;;;;16.10;99.90;16.40;100077.00;;;;344459;28;82527;-91
2022/10/04 00:33:37;;;;;;;;;;;16.10;99.90;16.30;100089.00;;;;346926;28;86553;-91
2022/10/04 00:34:15;;;;;;;;;;;16.10;99.90;16.40;100085.00;;;;347053;28;83630;-91
2022/10/04 00:34:26;;;;;;;;;;;16.10;99.90;16.30;100089.00;;;;341407;28;87705;-90
2022/10/04 00:34:46;;;;;;;;;;;16.10;99.90;16.20;100083.00;;;;339017;28;82487;-90
2022/10/04 00:34:58;;;;;;;;;;;16.10;99.90;16.30;100083.00;;;;341710;28;87662;-90
2022/10/04 00:35:25;;;;;;;;;;;16.10;99.90;16.30;100088.00;;;;341764;28;83574;-91
2022/10/04 00:35:36;;;;;;;;;;;16.10;99.90;16.30;100084.00;;;;339123;28;85503;-91
2022/10/04 00:35:48;;;;;;;;;;;16.10;99.90;16.30;100078.00;;;;339186;28;82602;-91
2022/10/04 00:36:00;;;;;;;;;;;16.10;99.90;16.30;100091.00;;;;341858;28;85829;-90
2022/10/04 00:36:24;;;;;;;;;;;16.10;99.90;16.40;100080.00;;;;341789;28;83612;-91
2022/10/04 00:36:38;;;;;;;;;;;16.10;99.90;16.30;100091.00;;;;340239;28;86702;-90
2022/10/04 00:36:54;;;;;;;;;;;16.10;99.90;16.10;100083.00;;;;337879;28;83596;-91
2022/10/04 00:37:22;;;;;;;;;;;16.10;99.90;16.10;100094.00;;;;340194;28;86450;-91
2022/10/04 00:37:58;;;;;;;;;;;16.00;99.90;16.00;100090.00;;;;340311;28;82545;-91
2022/10/04 00:38:14;;;;;;;;;;;16.00;99.90;16.10;100087.00;;;;340364;28;87399;-91
2022/10/04 00:38:26;;;;;;;;;;;16.00;99.90;16.20;100090.00;;;;341667;28;83586;-90
2022/10/04 00:38:38;;;;;;;;;;;16.00;99.90;16.20;100079.00;;;;341549;28;86340;-90
2022/10/04 00:39:08;;;;;;;;;;;16.00;99.90;16.20;100090.00;;;;340413;28;82492;-90
2022/10/04 00:39:37;;;;;;;;;;;16.00;99.90;16.10;100089.00;;;;341394;28;86354;-91
2022/10/04 00:40:04;;;;;;;;;;;16.00;99.90;16.10;100087.00;;;;343275;28;82596;-91
2022/10/04 00:40:16;;;;;;;;;;;16.00;99.90;16.20;100089.00;;;;338931;28;86409;-91
2022/10/04 00:40:49;;;;;;;;;;;16.00;99.90;16.30;100086.00;;;;341630;28;82666;-91
2022/10/04 00:41:03;;;;;;;;;;;16.00;99.90;16.30;100090.00;;;;342937;28;85396;-91
2022/10/04 00:41:15;;;;;;;;;;;16.00;99.90;16.20;100089.00;;;;341455;28;82722;-91
2022/10/04 00:41:27;;;;;;;;;;;16.00;99.90;16.20;100090.00;;;;345451;28;85251;-92
2022/10/04 00:42:11;;;;;;;;;;;16.00;99.90;16.30;100094.00;;;;343146;28;84056;-90
2022/10/04 00:42:33;;;;;;;;;;;16.00;99.90;16.30;100091.00;;;;340038;28;87011;-90
2022/10/04 00:42:51;;;;;;;;;;;16.00;99.90;16.30;100093.00;;;;340040;28;82510;-90
2022/10/04 00:43:15;;;;;;;;;;;16.00;99.90;16.40;100083.00;;;;338908;28;86790;-91
2022/10/04 00:43:35;;;;;;;;;;;16.00;99.90;16.40;100091.00;;;;339031;28;82572;-90
2022/10/04 00:43:47;;;;;;;;;;;16.10;99.90;16.30;100093.00;;;;340298;28;86199;-90
2022/10/04 00:43:59;;;;;;;;;;;16.00;99.90;16.30;100084.00;;;;342850;28;83453;-91
2022/10/04 00:44:17;;;;;;;;;;;16.00;99.90;16.20;100088.00;;;;340167;28;86370;-90
2022/10/04 00:44:50;;;;;;;;;;;16.10;99.90;16.20;100097.00;;;;340362;28;82647;-90
2022/10/04 00:45:22;;;;;;;;;;;16.00;99.90;16.30;100101.00;;;;340380;28;84044;-90
2022/10/04 00:45:45;;;;;;;;;;;16.00;99.90;16.30;100097.00;;;;344341;28;82697;-90
2022/10/04 00:46:21;;;;;;;;;;;16.00;99.90;16.20;100097.00;;;;340154;28;85209;-91
2022/10/04 00:46:33;;;;;;;;;;;16.00;99.90;16.30;100089.00;;;;340546;28;82599;-91
2022/10/04 00:46:44;;;;;;;;;;;16.00;99.90;16.40;100091.00;;;;338885;28;86060;-91
2022/10/04 00:46:56;;;;;;;;;;;16.00;99.90;16.40;100098.00;;;;337866;28;83576;-90
2022/10/04 00:47:30;;;;;;;;;;;16.00;99.90;16.30;100094.00;;;;340254;28;85965;-91
2022/10/04 00:47:45;;;;;;;;;;;16.10;99.90;16.20;100097.00;;;;341883;28;83400;-91
2022/10/04 00:48:02;;;;;;;;;;;16.10;99.90;16.10;100095.00;;;;343148;28;86166;-91
2022/10/04 00:48:21;;;;;;;;;;;16.10;99.90;16.20;100094.00;;;;339164;28;83364;-90
2022/10/04 00:48:40;;;;;;;;;;;16.00;99.90;16.20;100097.00;;;;341528;28;86502;-90
2022/10/04 00:48:55;;;;;;;;;;;16.00;99.90;16.20;100091.00;;;;340384;28;82480;-91
2022/10/04 00:49:07;;;;;;;;;;;16.00;99.90;16.20;100095.00;;;;340177;28;84664;-91
2022/10/04 00:49:20;;;;;;;;;;;16.00;99.90;16.20;100095.00;;;;340299;28;83445;-91
2022/10/04 00:49:34;;;;;;;;;;;16.00;99.90;16.20;100093.00;;;;338957;28;87732;-90
2022/10/04 00:49:45;;;;;;;;;;;16.00;99.90;16.30;100092.00;;;;341790;28;82553;-90
2022/10/04 00:50:30;;;;;;;;;;;16.00;99.90;16.40;100097.00;;;;341705;28;86444;-91
2022/10/04 00:50:44;;;;;;;;;;;16.00;99.90;16.30;100093.00;;;;341792;28;83322;-91
2022/10/04 00:51:20;;;;;;;;;;;16.00;99.90;16.20;100097.00;;;;341595;28;86406;-91
2022/10/04 00:51:40;;;;;;;;;;;16.00;99.90;16.30;100092.00;;;;341923;28;82481;-91
2022/10/04 00:52:00;;;;;;;;;;;16.00;99.90;16.20;100093.00;;;;341346;28;86388;-91
2022/10/04 00:52:14;;;;;;;;;;;16.00;99.90;16.20;100096.00;;;;340411;28;83433;-90
2022/10/04 00:52:28;;;;;;;;;;;16.00;99.90;16.30;100086.00;;;;340260;28;87441;-91
2022/10/04 00:52:42;;;;;;;;;;;16.00;99.90;16.30;100098.00;;;;341677;28;82579;-91
2022/10/04 00:52:56;;;;;;;;;;;16.00;99.90;16.30;100097.00;;;;340298;28;87206;-91
2022/10/04 00:53:18;;;;;;;;;;;16.00;99.90;16.30;100095.00;;;;339002;28;82717;-90
2022/10/04 00:53:33;;;;;;;;;;;16.00;99.90;16.30;100100.00;;;;341457;28;85377;-91
2022/10/04 00:54:07;;;;;;;;;;;16.00;99.90;16.30;100099.00;;;;341654;28;82504;-91
2022/10/04 00:54:34;;;;;;;;;;;16.00;99.90;16.40;100094.00;;;;341740;28;86050;-91
2022/10/04 00:54:49;;;;;;;;;;;16.00;99.90;16.40;100099.00;;;;341776;28;82527;-91
2022/10/04 00:55:05;;;;;;;;;;;16.00;99.90;16.40;100095.00;;;;338773;28;86177;-92
2022/10/04 00:55:40;;;;;;;;;;;16.10;99.90;16.40;100095.00;;;;336400;28;83479;-91
2022/10/04 00:55:54;;;;;;;;;;;16.00;99.90;16.20;100082.00;;;;338776;28;87421;-91
2022/10/04 00:56:10;;;;;;;;;;;16.00;99.90;16.20;100091.00;;;;341775;28;83568;-91
2022/10/04 00:56:29;;;;;;;;;;;16.00;99.90;16.20;100097.00;;;;343163;28;85946;-91
2022/10/04 00:56:49;;;;;;;;;;;16.00;99.90;16.20;100092.00;;;;338674;28;83512;-91
2022/10/04 00:57:04;;;;;;;;;;;16.00;99.90;16.30;100090.00;;;;339249;28;87148;-92
2022/10/04 00:57:19;;;;;;;;;;;16.00;99.90;16.30;100091.00;;;;339666;28;82461;-91
2022/10/04 00:57:34;;;;;;;;;;;16.00;99.90;16.20;100091.00;;;;338192;28;83938;-91
2022/10/04 00:57:45;;;;;;;;;;;16.00;99.90;16.20;100097.00;;;;339251;28;82538;-91
2022/10/04 00:57:58;;;;;;;;;;;16.00;99.90;16.20;100093.00;;;;339623;28;86375;-91
2022/10/04 00:58:19;;;;;;;;;;;16.00;99.90;16.20;100098.00;;;;338410;28;83472;-91
2022/10/04 00:58:53;;;;;;;;;;;16.00;99.90;16.20;100085.00;;;;336847;28;87492;-91
2022/10/04 00:59:26;;;;;;;;;;;16.00;99.90;16.10;100094.00;;;;332893;29;83432;-91
2022/10/04 00:59:37;;;;;;;;;;;15.90;99.90;16.30;100089.00;;;;334372;29;86088;-91
2022/10/04 01:00:03;;;;;;;;;;;16.00;99.90;16.30;100091.00;;;;335506;29;82741;-91
2022/10/04 01:00:16;;;;;;;;;;;16.00;99.90;16.30;100094.00;;;;333930;29;85507;-91
2022/10/04 01:00:30;;;;;;;;;;;16.00;99.90;16.30;100092.00;;;;335675;29;82615;-91
2022/10/04 01:00:42;;;;;;;;;;;16.00;99.90;16.30;100094.00;;;;335752;29;86025;-90
2022/10/04 01:00:54;;;;;;;;;;;16.00;99.90;16.30;100100.00;;;;335694;29;83560;-91
2022/10/04 01:01:07;;;;;;;;;;;16.00;99.90;16.20;100089.00;;;;338141;28;86947;-91
2022/10/04 01:01:22;;;;;;;;;;;16.00;99.90;16.30;100089.00;;;;338157;28;82591;-91
2022/10/04 01:01:34;;;;;;;;;;;16.00;99.90;16.30;100089.00;;;;335564;29;86600;-91
2022/10/04 01:01:48;;;;;;;;;;;16.00;99.90;16.30;100093.00;;;;335835;29;84172;-90
2022/10/04 01:02:20;;;;;;;;;;;16.00;99.90;16.40;100093.00;;;;336608;28;86339;-91
2022/10/04 01:02:44;;;;;;;;;;;16.00;99.90;16.40;100095.00;;;;334485;29;83333;-92
2022/10/04 01:03:09;;;;;;;;;;;16.00;99.90;16.40;100092.00;;;;335639;29;85084;-91
2022/10/04 01:03:32;;;;;;;;;;;16.00;99.90;16.10;100103.00;;;;335878;29;82618;-91
2022/10/04 01:03:44;;;;;;;;;;;16.00;99.90;16.10;100090.00;;;;335405;29;86386;-91
2022/10/04 01:03:56;;;;;;;;;;;16.00;99.90;16.00;100086.00;;;;335694;29;83454;-91
2022/10/04 01:04:22;;;;;;;;;;;16.00;99.90;16.00;100084.00;;;;335671;29;87415;-91
2022/10/04 01:04:51;;;;;;;;;;;16.00;99.90;16.00;100084.00;;;;337017;28;82758;-92
2022/10/04 01:05:29;;;;;;;;;;;15.90;99.90;16.00;100090.00;;;;336962;28;86169;-89
2022/10/04 01:05:46;;;;;;;;;;;15.90;99.90;16.10;100092.00;;;;338195;28;83505;-90
2022/10/04 01:05:59;;;;;;;;;;;15.90;99.90;16.20;100081.00;;;;335664;29;87665;-90
2022/10/04 01:06:12;;;;;;;;;;;15.90;99.90;16.10;100084.00;;;;334426;29;82431;-91
2022/10/04 01:06:25;;;;;;;;;;;15.90;99.90;16.10;100078.00;;;;336935;28;83736;-91
2022/10/04 01:06:36;;;;;;;;;;;15.90;99.90;16.00;100083.00;;;;335776;29;82769;-89
2022/10/04 01:06:48;;;;;;;;;;;15.90;99.90;16.00;100085.00;;;;334202;29;84392;-91
2022/10/04 01:07:01;;;;;;;;;;;15.90;99.90;16.10;100090.00;;;;337223;28;82521;-92
2022/10/04 01:07:14;;;;;;;;;;;15.90;99.90;16.10;100083.00;;;;338337;28;86558;-91
2022/10/04 01:07:50;;;;;;;;;;;15.90;99.90;16.10;100094.00;;;;337465;28;83681;-91
2022/10/04 01:08:10;;;;;;;;;;;15.90;99.90;16.20;100090.00;;;;337563;28;86656;-91
2022/10/04 01:08:24;;;;;;;;;;;15.90;99.90;16.20;100089.00;;;;334824;29;82531;-91
2022/10/04 01:08:50;;;;;;;;;;;15.90;99.90;16.00;100086.00;;;;336028;29;86177;-91
2022/10/04 01:09:05;;;;;;;;;;;15.90;99.90;16.10;100091.00;;;;336005;29;83580;-91
2022/10/04 01:09:17;;;;;;;;;;;15.90;99.90;16.10;100092.00;;;;335814;29;85446;-91
2022/10/04 01:09:31;;;;;;;;;;;15.90;99.90;16.10;100080.00;;;;333514;29;82622;-91
2022/10/04 01:09:50;;;;;;;;;;;15.90;99.90;16.10;100087.00;;;;334797;29;86166;-91
2022/10/04 01:10:08;;;;;;;;;;;15.90;99.90;16.10;100087.00;;;;337290;28;83599;-90
2022/10/04 01:10:28;;;;;;;;;;;15.90;99.90;16.00;100088.00;;;;337376;28;86326;-91
2022/10/04 01:10:49;;;;;;;;;;;15.90;99.90;16.10;100083.00;;;;337340;28;83557;-90
2022/10/04 01:11:09;;;;;;;;;;;15.90;99.90;16.00;100077.00;;;;335808;29;86433;-91
2022/10/04 01:11:26;;;;;;;;;;;15.90;99.90;15.90;100083.00;;;;334583;29;82627;-92
2022/10/04 01:11:41;;;;;;;;;;;15.80;99.90;16.00;100083.00;;;;335799;29;86228;-90
2022/10/04 01:12:01;;;;;;;;;;;15.80;99.90;15.90;100082.00;;;;337233;28;83292;-91
2022/10/04 01:12:26;;;;;;;;;;;15.80;99.90;16.00;100081.00;;;;337255;28;86438;-91
2022/10/04 01:12:43;;;;;;;;;;;15.80;99.90;16.00;100077.00;;;;337117;28;82666;-90
2022/10/04 01:13:14;;;;;;;;;;;15.80;99.90;16.00;100082.00;;;;335820;29;87493;-91
2022/10/04 01:13:37;;;;;;;;;;;15.80;99.90;16.10;100083.00;;;;337930;28;83472;-90
2022/10/04 01:13:52;;;;;;;;;;;15.80;99.90;16.00;100078.00;;;;340754;28;86159;-90
2022/10/04 01:14:10;;;;;;;;;;;15.80;99.90;15.90;100086.00;;;;338232;28;82529;-91
2022/10/04 01:14:45;;;;;;;;;;;15.80;99.90;16.00;100090.00;;;;336833;28;86213;-90
2022/10/04 01:15:32;;;;;;;;;;;15.80;99.90;16.00;100085.00;;;;336751;28;82757;-91
2022/10/04 01:15:58;;;;;;;;;;;15.80;99.90;16.00;100077.00;;;;340617;28;85875;-90
2022/10/04 01:16:14;;;;;;;;;;;15.80;99.90;15.90;100069.00;;;;340948;28;83359;-91
2022/10/04 01:16:36;;;;;;;;;;;15.80;99.90;16.00;100083.00;;;;339498;28;86303;-91
2022/10/04 01:16:48;;;;;;;;;;;15.80;99.90;15.90;100074.00;;;;339668;28;83356;-90
2022/10/04 01:17:02;;;;;;;;;;;15.80;99.90;16.00;100078.00;;;;337821;28;86981;-90
2022/10/04 01:17:13;;;;;;;;;;;15.80;99.90;15.90;100078.00;;;;340782;28;83661;-91
2022/10/04 01:17:25;;;;;;;;;;;15.80;99.90;16.00;100080.00;;;;339675;28;86539;-90
2022/10/04 01:17:37;;;;;;;;;;;15.80;99.90;16.00;100090.00;;;;339613;28;82403;-90
2022/10/04 01:18:14;;;;;;;;;;;15.80;99.90;16.00;100076.00;;;;340729;28;87482;-90
2022/10/04 01:18:28;;;;;;;;;;;15.80;99.90;16.10;100082.00;;;;339638;28;83654;-91
2022/10/04 01:18:40;;;;;;;;;;;15.80;99.90;16.10;100078.00;;;;339568;28;86290;-91
2022/10/04 01:18:52;;;;;;;;;;;15.80;99.90;16.10;100078.00;;;;337001;28;83386;-91
2022/10/04 01:19:23;;;;;;;;;;;15.80;99.90;16.00;100082.00;;;;337925;28;86523;-90
2022/10/04 01:19:35;;;;;;;;;;;15.80;99.90;16.00;100080.00;;;;339541;28;82566;-91
2022/10/04 01:19:51;;;;;;;;;;;15.80;99.90;16.10;100083.00;;;;338059;28;87280;-90
2022/10/04 01:20:03;;;;;;;;;;;15.80;99.90;16.00;100082.00;;;;339508;28;82648;-91
2022/10/04 01:20:40;;;;;;;;;;;15.80;99.90;16.00;100085.00;;;;339592;28;87140;-91
2022/10/04 01:20:53;;;;;;;;;;;15.80;99.90;15.90;100082.00;;;;338377;28;83423;-91
2022/10/04 01:21:17;;;;;;;;;;;15.80;99.90;15.70;100082.00;;;;338116;28;87253;-90
2022/10/04 01:21:30;;;;;;;;;;;15.70;99.90;15.70;100079.00;;;;336991;28;82706;-90
2022/10/04 01:21:41;;;;;;;;;;;15.70;99.90;15.80;100075.00;;;;339152;28;87790;-90
2022/10/04 01:22:11;;;;;;;;;;;15.70;99.90;15.90;100086.00;;;;339496;28;83660;-90
2022/10/04 01:22:39;;;;;;;;;;;15.70;99.90;15.90;100078.00;;;;338093;28;86807;-91
2022/10/04 01:22:51;;;;;;;;;;;15.70;99.90;15.90;100076.00;;;;335604;29;83463;-91
2022/10/04 01:23:02;;;;;;;;;;;15.70;99.90;15.80;100080.00;;;;336693;28;86326;-91
2022/10/04 01:23:33;;;;;;;;;;;15.70;99.90;15.90;100067.00;;;;339395;28;82601;-90
2022/10/04 01:23:52;;;;;;;;;;;15.70;99.90;16.00;100070.00;;;;339263;28;85671;-91
2022/10/04 01:24:07;;;;;;;;;;;15.70;99.90;15.90;100078.00;;;;338300;28;82695;-91
2022/10/04 01:24:20;;;;;;;;;;;15.70;99.90;15.90;100074.00;;;;338196;28;87598;-91
2022/10/04 01:24:36;;;;;;;;;;;15.70;99.90;15.90;100077.00;;;;336760;28;83492;-91
2022/10/04 01:24:48;;;;;;;;;;;15.70;99.90;15.90;100075.00;;;;338022;28;87047;-90
2022/10/04 01:25:00;;;;;;;;;;;15.70;99.90;15.80;100070.00;;;;338243;28;83491;-90
2022/10/04 01:25:11;;;;;;;;;;;15.70;99.90;15.80;100076.00;;;;340455;28;87014;-90
2022/10/04 01:25:43;;;;;;;;;;;15.70;99.90;15.60;100082.00;;;;339373;28;83464;-91
2022/10/04 01:25:55;;;;;;;;;;;15.70;99.90;15.70;100077.00;;;;335324;29;87421;-92
2022/10/04 01:26:35;;;;;;;;;;;15.60;99.90;15.90;100076.00;;;;338154;28;83609;-90
2022/10/04 01:26:47;;;;;;;;;;;15.60;99.90;15.80;100076.00;;;;338106;28;87636;-90
2022/10/04 01:26:59;;;;;;;;;;;15.60;99.90;15.80;100070.00;;;;337797;28;82741;-91
2022/10/04 01:27:29;;;;;;;;;;;15.60;99.90;15.80;100067.00;;;;338070;28;87500;-91
2022/10/04 01:27:42;;;;;;;;;;;15.60;99.90;15.60;100079.00;;;;339599;28;82590;-91
2022/10/04 01:27:54;;;;;;;;;;;15.60;99.90;15.60;100079.00;;;;336615;28;86057;-91
2022/10/04 01:28:05;;;;;;;;;;;15.60;99.90;15.60;100073.00;;;;339483;28;83461;-90
2022/10/04 01:28:17;;;;;;;;;;;15.60;99.90;15.50;100069.00;;;;340738;28;85988;-90
2022/10/04 01:28:30;;;;;;;;;;;15.60;99.90;15.50;100065.00;;;;339159;28;83428;-91
2022/10/04 01:28:42;;;;;;;;;;;15.60;99.90;15.60;100077.00;;;;339449;28;86193;-91
2022/10/04 01:28:58;;;;;;;;;;;15.60;99.90;15.50;100076.00;;;;339517;28;82528;-90
2022/10/04 01:29:13;;;;;;;;;;;15.50;99.90;15.60;100074.00;;;;337942;28;87280;-90
2022/10/04 01:29:25;;;;;;;;;;;15.50;99.90;15.60;100077.00;;;;339471;28;83386;-90
2022/10/04 01:29:37;;;;;;;;;;;15.50;99.90;15.60;100065.00;;;;338033;28;87659;-90
2022/10/04 01:29:49;;;;;;;;;;;15.50;99.90;15.60;100065.00;;;;338202;28;82652;-90
2022/10/04 01:30:06;;;;;;;;;;;15.50;99.90;15.50;100068.00;;;;339337;28;87828;-90
2022/10/04 01:30:19;;;;;;;;;;;15.50;99.90;15.60;100064.00;;;;338190;28;83589;-90
2022/10/04 01:30:31;;;;;;;;;;;15.50;99.90;15.50;100066.00;;;;336592;28;87419;-90
2022/10/04 01:30:42;;;;;;;;;;;15.50;99.90;15.60;100070.00;;;;339425;28;83502;-90
2022/10/04 01:30:54;;;;;;;;;;;15.50;99.90;15.60;100064.00;;;;338166;28;86618;-91
2022/10/04 01:31:06;;;;;;;;;;;15.50;99.90;15.70;100065.00;;;;338465;28;83553;-90
2022/10/04 01:31:18;;;;;;;;;;;15.50;99.90;15.70;100067.00;;;;338241;28;86381;-90
2022/10/04 01:31:32;;;;;;;;;;;15.50;99.90;15.80;100068.00;;;;336828;28;82614;-90
2022/10/04 01:31:46;;;;;;;;;;;15.50;99.90;15.70;100068.00;;;;336774;28;87665;-91
2022/10/04 01:31:59;;;;;;;;;;;15.50;99.90;15.70;100067.00;;;;338446;28;82470;-91